createdAt,value
2023-03-19T00:00:31.690Z,100.00
2023-03-19T00:05:33.599Z,100.00
2023-03-19T00:10:39.599Z,100.00
2023-03-19T00:15:41.659Z,100.00
2023-03-19T00:20:43.711Z,100.00
2023-03-19T00:25:45.353Z,100.00
2023-03-19T00:30:46.959Z,100.00
2023-03-19T00:35:49.036Z,100.00
2023-03-19T00:40:50.759Z,100.00
2023-03-19T00:45:52.746Z,100.00
2023-03-19T00:50:54.366Z,100.00
2023-03-19T00:55:56.169Z,100.00
2023-03-19T01:00:57.782Z,100.00
2023-03-19T01:05:59.517Z,100.00
2023-03-19T01:11:07.069Z,100.00
2023-03-19T01:16:09.416Z,100.00
2023-03-19T01:21:11.258Z,100.00
2023-03-19T01:26:19.604Z,100.00
2023-03-19T01:31:23.547Z,100.00
2023-03-19T01:36:57.622Z,100.00
2023-03-19T01:42:06.764Z,100.00
2023-03-19T01:47:25.174Z,100.00
2023-03-19T01:52:52.695Z,100.00
2023-03-19T01:58:04.825Z,100.00
2023-03-19T02:03:26.822Z,100.00
2023-03-19T02:08:37.902Z,100.00
2023-03-19T02:13:39.571Z,100.00
2023-03-19T02:18:41.673Z,100.00
2023-03-19T02:24:01.814Z,100.00
2023-03-19T02:29:20.204Z,100.00
2023-03-19T02:34:22.644Z,100.00
2023-03-19T02:39:32.993Z,100.00
2023-03-19T02:44:34.705Z,100.00
2023-03-19T02:49:36.366Z,100.00
2023-03-19T02:54:38.131Z,100.00
2023-03-19T02:59:39.857Z,100.00
2023-03-19T03:04:41.932Z,100.00
2023-03-19T03:09:43.614Z,100.00
2023-03-19T03:14:45.763Z,100.00
2023-03-19T03:19:48.344Z,100.00
2023-03-19T03:24:49.979Z,100.00
2023-03-19T03:29:52.114Z,100.00
2023-03-19T03:34:53.709Z,100.00
2023-03-19T03:39:55.355Z,100.00
2023-03-19T03:44:57.013Z,100.00
2023-03-19T03:49:58.891Z,100.00
2023-03-19T03:55:01.618Z,100.00
2023-03-19T04:00:05.062Z,100.00
2023-03-19T04:05:14.860Z,100.00
2023-03-19T04:10:16.824Z,100.00
2023-03-19T04:15:19.029Z,100.00
2023-03-19T04:20:23.692Z,100.00
2023-03-19T04:25:26.100Z,100.00
2023-03-19T04:30:28.212Z,100.00
2023-03-19T04:35:31.415Z,100.00
2023-03-19T04:40:33.708Z,100.00
2023-03-19T04:45:36.685Z,100.00
2023-03-19T04:50:39.467Z,100.00
2023-03-19T04:55:41.706Z,100.00
2023-03-19T05:00:49.797Z,100.00
2023-03-19T05:05:56.438Z,100.00
2023-03-19T05:10:58.896Z,100.00
2023-03-19T05:16:06.688Z,100.00
2023-03-19T05:21:12.985Z,100.00
2023-03-19T05:26:15.982Z,100.00
2023-03-19T05:31:37.644Z,100.00
2023-03-19T05:36:39.420Z,100.00
2023-03-19T05:41:49.396Z,100.00
2023-03-19T05:46:55.854Z,100.00
2023-03-19T05:52:00.353Z,100.00
2023-03-19T05:57:03.486Z,100.00
2023-03-19T06:02:13.820Z,100.00
2023-03-19T06:07:16.183Z,100.00
2023-03-19T06:12:18.157Z,100.00
2023-03-19T06:17:49.098Z,100.00
2023-03-19T06:22:52.462Z,100.00
2023-03-19T06:27:56.907Z,100.00
2023-03-19T06:33:03.010Z,100.00
2023-03-19T06:38:07.485Z,100.00
2023-03-19T06:43:09.479Z,100.00
2023-03-19T06:48:11.193Z,100.00
2023-03-19T06:53:14.048Z,100.00
2023-03-19T06:58:15.798Z,100.00
2023-03-19T07:03:17.378Z,100.00
2023-03-19T07:08:19.475Z,100.00
2023-03-19T07:13:21.338Z,100.00
2023-03-19T07:18:22.939Z,100.00
2023-03-19T07:23:24.586Z,100.00
2023-03-19T07:28:26.276Z,100.00
2023-03-19T07:33:27.840Z,100.00
2023-03-19T07:38:29.468Z,100.00
2023-03-19T07:43:31.503Z,100.00
2023-03-19T07:48:33.329Z,100.00
2023-03-19T07:53:34.930Z,100.00
2023-03-19T07:58:36.516Z,100.00
2023-03-19T08:03:38.642Z,100.00
2023-03-19T08:08:40.314Z,100.00
2023-03-19T08:13:42.727Z,100.00
2023-03-19T08:18:44.299Z,100.00
2023-03-19T08:23:46.235Z,100.00
2023-03-19T08:28:47.944Z,100.00
2023-03-19T08:33:49.583Z,100.00
2023-03-19T08:38:54.784Z,100.00
2023-03-19T08:43:56.480Z,100.00
2023-03-19T08:48:58.080Z,100.00
2023-03-19T08:53:59.730Z,100.00
2023-03-19T08:59:01.720Z,100.00
2023-03-19T09:04:03.649Z,100.00
2023-03-19T09:09:06.462Z,100.00
2023-03-19T09:14:09.353Z,100.00
2023-03-19T09:19:11.214Z,100.00
2023-03-19T09:24:12.946Z,100.00
2023-03-19T09:29:14.711Z,100.00
2023-03-19T09:34:16.523Z,100.00
2023-03-19T09:39:18.198Z,100.00
2023-03-19T09:44:29.699Z,100.00
2023-03-19T09:49:39.874Z,100.00
2023-03-19T09:54:48.276Z,100.00
2023-03-19T09:59:49.980Z,100.00
2023-03-19T10:05:11.319Z,100.00
2023-03-19T10:10:48.455Z,100.00
2023-03-19T10:15:51.233Z,100.00
2023-03-19T10:21:02.600Z,100.00
2023-03-19T10:26:07.269Z,100.00
2023-03-19T10:31:17.794Z,100.00
2023-03-19T10:36:22.272Z,100.00
2023-03-19T10:41:45.518Z,100.00
2023-03-19T10:46:47.333Z,100.00
2023-03-19T10:51:49.382Z,100.00
2023-03-19T10:56:55.069Z,100.00
2023-03-19T11:01:58.867Z,100.00
2023-03-19T11:07:11.328Z,100.00
2023-03-19T11:12:31.488Z,100.00
2023-03-19T11:18:01.279Z,100.00
2023-03-19T11:23:12.583Z,100.00
2023-03-19T11:28:19.149Z,100.00
2023-03-19T11:33:43.657Z,100.00
2023-03-19T11:39:07.244Z,100.00
2023-03-19T11:44:28.844Z,100.00
2023-03-19T11:49:43.069Z,100.00
2023-03-19T11:55:12.272Z,100.00
2023-03-19T12:00:41.095Z,100.00
2023-03-19T12:05:56.874Z,100.00
2023-03-19T12:11:17.351Z,100.00
2023-03-19T12:16:49.688Z,100.00
2023-03-19T12:22:04.958Z,100.00
2023-03-19T12:27:25.054Z,100.00
2023-03-19T12:33:02.281Z,100.00
2023-03-19T12:38:21.156Z,100.00
2023-03-19T12:43:32.352Z,100.00
2023-03-19T12:48:58.403Z,100.00
2023-03-19T12:54:24.331Z,100.00
2023-03-19T12:59:29.121Z,100.00
2023-03-19T13:04:37.564Z,100.00
2023-03-19T13:09:59.187Z,100.00
2023-03-19T13:15:06.308Z,100.00
2023-03-19T13:20:20.418Z,100.00
2023-03-19T13:25:27.649Z,100.00
2023-03-19T13:30:29.981Z,100.00
2023-03-19T13:35:34.753Z,100.00
2023-03-19T13:40:42.685Z,100.00
2023-03-19T13:45:44.605Z,100.00
2023-03-19T13:51:04.929Z,100.00
2023-03-19T13:56:22.454Z,100.00
2023-03-19T14:01:30.462Z,100.00
2023-03-19T14:06:35.118Z,100.00
2023-03-19T14:11:37.839Z,100.00
2023-03-19T14:16:46.588Z,100.00
2023-03-19T14:22:00.353Z,100.00
2023-03-19T14:27:11.001Z,100.00
2023-03-19T14:32:22.202Z,100.00
2023-03-19T14:37:34.592Z,100.00
2023-03-19T14:43:03.242Z,100.00
2023-03-19T14:48:23.692Z,100.00
2023-03-19T14:53:41.571Z,100.00
2023-03-19T14:58:51.454Z,100.00
2023-03-19T15:04:00.658Z,100.00
2023-03-19T15:09:02.753Z,100.00
2023-03-19T15:14:32.974Z,100.00
2023-03-19T15:19:36.347Z,100.00
2023-03-19T15:24:38.151Z,100.00
2023-03-19T15:29:39.838Z,100.00
2023-03-19T15:34:42.356Z,100.00
2023-03-19T15:39:51.748Z,100.00
2023-03-19T15:44:59.091Z,100.00
2023-03-19T15:50:12.312Z,100.00
2023-03-19T15:55:15.581Z,99.98
2023-03-19T16:00:18.952Z,99.92
2023-03-19T16:05:29.722Z,99.17
2023-03-19T16:10:38.994Z,99.21
2023-03-19T16:15:44.927Z,99.53
2023-03-19T16:21:10.355Z,99.50
2023-03-19T16:26:41.247Z,99.46
2023-03-19T16:31:46.408Z,98.55
2023-03-19T16:36:48.933Z,97.96
2023-03-19T16:42:28.224Z,98.40
2023-03-19T16:47:29.829Z,98.49
2023-03-19T16:52:31.924Z,99.52
2023-03-19T16:57:33.546Z,99.12
2023-03-19T17:02:35.407Z,98.35
2023-03-19T17:07:37.017Z,97.99
2023-03-19T17:12:38.632Z,97.19
2023-03-19T17:17:40.535Z,96.68
2023-03-19T17:22:42.315Z,96.52
2023-03-19T17:27:45.372Z,96.73
2023-03-19T17:32:49.652Z,96.62
2023-03-19T17:37:52.572Z,96.61
2023-03-19T17:42:55.657Z,97.47
2023-03-19T17:47:58.490Z,98.65
2023-03-19T17:53:00.714Z,99.09
2023-03-19T17:58:02.318Z,99.02
2023-03-19T18:03:03.987Z,99.28
2023-03-19T18:08:05.965Z,100.00
2023-03-19T18:13:09.126Z,100.00
2023-03-19T18:18:18.977Z,100.00
2023-03-19T18:23:22.148Z,100.00
2023-03-19T18:28:23.776Z,100.00
2023-03-19T18:33:29.258Z,100.00
2023-03-19T18:38:30.908Z,99.92
2023-03-19T18:43:32.577Z,99.61
2023-03-19T18:48:34.302Z,99.33
2023-03-19T18:53:35.977Z,99.23
2023-03-19T18:58:39.125Z,98.38
2023-03-19T19:03:40.839Z,97.90
2023-03-19T19:08:42.538Z,98.39
2023-03-19T19:13:55.906Z,99.27
2023-03-19T19:18:58.097Z,98.62
2023-03-19T19:23:59.739Z,98.50
2023-03-19T19:29:01.540Z,97.64
2023-03-19T19:34:03.214Z,98.39
2023-03-19T19:39:05.038Z,99.14
2023-03-19T19:44:07.254Z,98.85
2023-03-19T19:49:14.069Z,99.14
2023-03-19T19:54:16.174Z,98.57
2023-03-19T19:59:18.150Z,99.71
2023-03-19T20:04:21.281Z,100.00
2023-03-19T20:09:23.000Z,100.00
2023-03-19T20:14:24.705Z,100.00
2023-03-19T20:19:26.376Z,100.00
2023-03-19T20:24:28.013Z,100.00
2023-03-19T20:29:34.838Z,100.00
2023-03-19T20:34:39.104Z,100.00
2023-03-19T20:39:41.489Z,100.00
2023-03-19T20:44:44.174Z,100.00
2023-03-19T20:49:46.251Z,100.00
2023-03-19T20:54:48.294Z,100.00
2023-03-19T20:59:50.005Z,100.00
2023-03-19T21:04:51.770Z,100.00
2023-03-19T21:09:53.615Z,100.00
2023-03-19T21:14:55.692Z,100.00
2023-03-19T21:19:57.507Z,100.00
2023-03-19T21:25:05.792Z,100.00
2023-03-19T21:30:08.221Z,100.00
2023-03-19T21:35:22.386Z,100.00
2023-03-19T21:40:30.252Z,100.00
2023-03-19T21:45:36.496Z,100.00
2023-03-19T21:50:39.999Z,100.00
2023-03-19T21:55:41.743Z,100.00
2023-03-19T22:00:43.921Z,100.00
2023-03-19T22:05:46.284Z,100.00
2023-03-19T22:10:54.290Z,100.00
2023-03-19T22:15:58.610Z,100.00
2023-03-19T22:21:00.189Z,100.00
2023-03-19T22:26:01.990Z,100.00
2023-03-19T22:31:04.201Z,100.00
2023-03-19T22:36:06.363Z,100.00
2023-03-19T22:41:25.020Z,100.00
2023-03-19T22:46:27.992Z,100.00
2023-03-19T22:51:32.568Z,99.63
2023-03-19T22:56:34.512Z,99.86
2023-03-19T23:01:39.998Z,99.30
2023-03-19T23:06:41.725Z,99.58
2023-03-19T23:11:43.888Z,98.86
2023-03-19T23:16:48.160Z,96.89
2023-03-19T23:21:50.670Z,96.41
2023-03-19T23:26:59.685Z,94.74
2023-03-19T23:32:01.922Z,95.03
2023-03-19T23:37:03.597Z,93.52
2023-03-19T23:42:06.268Z,93.23
2023-03-19T23:47:09.313Z,94.11
2023-03-19T23:52:13.453Z,94.31
2023-03-19T23:57:17.054Z,95.40
